createdAt,value
2018-04-28T00:01:39.607Z,12.30
2018-04-28T00:03:43.946Z,11.70
2018-04-28T00:05:47.547Z,11.70
2018-04-28T00:07:51.231Z,11.70
2018-04-28T00:09:54.726Z,11.50
2018-04-28T00:11:58.364Z,11.60
2018-04-28T00:14:01.996Z,11.80
2018-04-28T00:16:10.488Z,12.00
2018-04-28T00:18:14.835Z,12.00
2018-04-28T00:20:29.088Z,12.50
2018-04-28T00:22:36.494Z,12.50
2018-04-28T00:24:43.038Z,12.80
2018-04-28T00:26:49.557Z,12.90
2018-04-28T00:28:57.715Z,13.00
2018-04-28T00:31:18.032Z,13.10
2018-04-28T00:33:23.539Z,12.40
2018-04-28T00:35:31.839Z,12.20
2018-04-28T00:37:41.297Z,12.40
2018-04-28T00:39:53.588Z,12.60
2018-04-28T00:41:57.179Z,12.60
2018-04-28T00:44:14.383Z,12.30
2018-04-28T00:46:28.789Z,12.20
2018-04-28T00:48:34.001Z,13.10
2018-04-28T00:50:42.935Z,12.00
2018-04-28T00:52:46.570Z,11.40
2018-04-28T00:54:50.167Z,11.50
2018-04-28T00:57:13.256Z,12.10
2018-04-28T00:59:22.547Z,12.10
2018-04-28T01:01:30.967Z,12.50
2018-04-28T01:03:41.738Z,12.80
2018-04-28T01:05:47.914Z,12.70
2018-04-28T01:08:00.444Z,12.70
2018-04-28T01:10:08.071Z,12.80
2018-04-28T01:12:11.627Z,12.80
2018-04-28T01:14:16.110Z,12.50
2018-04-28T01:16:20.506Z,11.50
2018-04-28T01:18:25.828Z,11.60
2018-04-28T01:20:32.054Z,11.60
2018-04-28T01:22:36.566Z,11.60
2018-04-28T01:24:46.227Z,11.70
2018-04-28T01:27:11.578Z,12.30
2018-04-28T01:29:18.676Z,12.20
2018-04-28T01:31:23.081Z,12.60
2018-04-28T01:33:48.135Z,12.80
2018-04-28T01:36:09.284Z,12.60
2018-04-28T01:38:14.306Z,12.10
2018-04-28T01:40:20.770Z,12.00
2018-04-28T01:42:41.883Z,12.20
2018-04-28T01:47:28.590Z,12.10
2018-04-28T01:49:32.920Z,11.70
2018-04-28T01:51:43.704Z,11.80
2018-04-28T01:56:37.566Z,11.80
2018-04-28T01:58:50.933Z,11.90
2018-04-28T02:01:07.036Z,12.10
2018-04-28T02:03:29.085Z,12.10
2018-04-28T02:05:36.410Z,12.30
2018-04-28T02:07:41.602Z,12.20
2018-04-28T02:09:46.049Z,12.10
2018-04-28T02:12:01.264Z,11.50
2018-04-28T02:14:21.458Z,11.30
2018-04-28T02:19:05.170Z,11.30
2018-04-28T02:21:08.824Z,11.30
2018-04-28T02:23:19.106Z,11.20
2018-04-28T02:25:25.241Z,11.70
2018-04-28T02:30:17.745Z,11.40
2018-04-28T02:32:21.275Z,11.10
2018-04-28T02:34:35.400Z,11.70
2018-04-28T02:36:50.744Z,11.70
2018-04-28T02:38:57.130Z,11.70
2018-04-28T02:41:18.461Z,11.40
2018-04-28T02:43:22.926Z,11.20
2018-04-28T02:45:31.490Z,11.30
2018-04-28T02:47:45.118Z,11.50
2018-04-28T02:49:56.528Z,11.60
2018-04-28T02:52:07.962Z,11.70
2018-04-28T02:54:13.143Z,11.30
2018-04-28T02:56:21.497Z,11.40
2018-04-28T03:01:37.654Z,11.30
2018-04-28T03:03:56.690Z,11.50
2018-04-28T03:06:05.843Z,11.50
2018-04-28T03:11:00.095Z,11.50
2018-04-28T03:13:03.376Z,11.40
2018-04-28T03:15:06.829Z,11.30
2018-04-28T03:19:44.406Z,11.20
2018-04-28T03:21:48.458Z,11.30
2018-04-28T03:23:52.441Z,11.70
2018-04-28T03:25:57.430Z,11.60
2018-04-28T03:28:01.508Z,11.70
2018-04-28T03:30:08.538Z,11.60
2018-04-28T03:32:11.798Z,11.60
2018-04-28T03:34:18.918Z,11.70
2018-04-28T03:36:28.206Z,11.70
2018-04-28T03:38:33.055Z,11.60
2018-04-28T03:40:39.040Z,11.40
2018-04-28T03:42:46.064Z,11.50
2018-04-28T03:44:50.147Z,11.40
2018-04-28T03:46:55.066Z,11.60
2018-04-28T03:49:00.248Z,11.70
2018-04-28T03:53:44.823Z,11.30
2018-04-28T03:55:48.081Z,11.30
2018-04-28T03:58:03.154Z,11.40
2018-04-28T04:00:18.359Z,11.60
2018-04-28T04:02:33.367Z,11.70
2018-04-28T04:04:47.240Z,11.80
2018-04-28T04:06:59.109Z,11.80
2018-04-28T04:09:18.848Z,11.70
2018-04-28T04:14:13.790Z,11.80
2018-04-28T04:16:25.642Z,11.80
2018-04-28T04:18:35.531Z,11.90
2018-04-28T04:20:48.522Z,11.50
2018-04-28T04:23:26.211Z,11.50
2018-04-28T04:25:40.939Z,11.70
2018-04-28T04:27:46.005Z,11.50
2018-04-28T04:29:56.717Z,11.70
2018-04-28T04:32:04.868Z,11.70
2018-04-28T04:34:24.420Z,12.00
2018-04-28T04:36:37.276Z,12.00
2018-04-28T04:38:42.250Z,11.90
2018-04-28T04:41:03.222Z,12.00
2018-04-28T04:43:07.974Z,12.00
2018-04-28T04:45:19.575Z,11.90
2018-04-28T04:47:47.365Z,11.90
2018-04-28T04:49:55.853Z,11.90
2018-04-28T04:52:10.944Z,11.90
2018-04-28T04:54:20.758Z,12.00
2018-04-28T04:59:05.705Z,11.70
2018-04-28T05:01:16.362Z,12.00
2018-04-28T05:03:28.174Z,11.80
2018-04-28T05:05:38.110Z,11.80
2018-04-28T05:07:47.126Z,12.00
2018-04-28T05:09:56.262Z,12.00
2018-04-28T05:12:09.945Z,12.00
2018-04-28T05:17:22.662Z,12.00
2018-04-28T05:22:26.638Z,12.10
2018-04-28T05:24:36.494Z,11.90
2018-04-28T05:26:48.574Z,12.10
2018-04-28T05:31:28.357Z,12.20
2018-04-28T05:36:50.578Z,12.30
2018-04-28T05:39:15.099Z,12.10
2018-04-28T05:41:30.065Z,12.00
2018-04-28T05:43:44.039Z,12.10
2018-04-28T05:45:59.099Z,12.00
2018-04-28T05:48:14.834Z,12.10
2018-04-28T05:50:29.923Z,12.10
2018-04-28T05:52:39.954Z,12.30
2018-04-28T05:54:54.075Z,12.30
2018-04-28T05:57:03.243Z,12.20
2018-04-28T05:59:18.153Z,12.30
2018-04-28T06:01:33.154Z,12.10
2018-04-28T06:06:47.613Z,11.90
2018-04-28T06:09:10.442Z,11.90
2018-04-28T06:11:17.363Z,11.90
2018-04-28T06:13:23.313Z,12.30
2018-04-28T06:15:42.243Z,12.30
2018-04-28T06:17:57.298Z,12.20
2018-04-28T06:22:40.025Z,12.10
2018-04-28T06:24:43.228Z,12.20
2018-04-28T06:26:47.256Z,12.20
2018-04-28T06:28:50.496Z,12.10
2018-04-28T06:30:53.778Z,12.00
2018-04-28T06:32:57.108Z,12.10
2018-04-28T06:35:00.365Z,12.20
2018-04-28T06:37:04.074Z,12.30
2018-04-28T06:39:07.506Z,12.30
2018-04-28T06:41:11.577Z,12.40
2018-04-28T06:43:14.890Z,12.40
2018-04-28T06:45:18.182Z,12.50
2018-04-28T06:47:21.928Z,12.60
2018-04-28T06:49:25.209Z,12.60
2018-04-28T06:51:28.502Z,12.70
2018-04-28T06:53:31.814Z,12.80
2018-04-28T06:55:39.620Z,12.90
2018-04-28T06:57:43.423Z,12.90
2018-04-28T06:59:46.797Z,12.90
2018-04-28T07:01:50.066Z,13.00
2018-04-28T07:03:54.048Z,13.20
2018-04-28T07:05:58.089Z,13.50
2018-04-28T07:08:02.607Z,13.50
2018-04-28T07:10:05.968Z,13.50
2018-04-28T07:12:10.019Z,13.40
2018-04-28T07:14:13.712Z,13.50
2018-04-28T07:16:16.998Z,13.40
2018-04-28T07:18:20.290Z,13.50
2018-04-28T07:20:24.179Z,13.70
2018-04-28T07:22:27.468Z,13.70
2018-04-28T07:24:30.763Z,13.60
2018-04-28T07:26:34.129Z,13.50
2018-04-28T07:28:38.305Z,13.60
2018-04-28T07:30:41.603Z,13.60
2018-04-28T07:32:46.819Z,13.60
2018-04-28T07:34:51.553Z,13.70
2018-04-28T07:36:54.935Z,13.80
2018-04-28T07:38:58.291Z,13.90
2018-04-28T07:41:01.617Z,13.90
2018-04-28T07:43:06.077Z,13.90
2018-04-28T07:45:10.181Z,13.80
2018-04-28T07:47:14.286Z,13.70
2018-04-28T07:49:18.495Z,13.70
2018-04-28T07:51:22.582Z,13.80
2018-04-28T07:53:25.843Z,13.80
2018-04-28T07:55:29.146Z,13.70
2018-04-28T07:57:32.600Z,13.70
2018-04-28T07:59:36.242Z,13.70
2018-04-28T08:01:39.925Z,13.80
2018-04-28T08:03:43.219Z,13.80
2018-04-28T08:05:46.561Z,13.80
2018-04-28T08:07:50.705Z,14.00
2018-04-28T08:09:54.498Z,14.00
2018-04-28T08:11:57.791Z,14.00
2018-04-28T08:14:01.118Z,14.10
2018-04-28T08:16:04.412Z,14.20
2018-04-28T08:18:07.720Z,14.40
2018-04-28T08:20:11.048Z,14.30
2018-04-28T08:22:14.506Z,14.30
2018-04-28T08:24:18.588Z,14.30
2018-04-28T08:26:22.258Z,14.30
2018-04-28T08:28:25.577Z,14.40
2018-04-28T08:30:28.975Z,14.50
2018-04-28T08:32:32.319Z,14.60
2018-04-28T08:34:35.900Z,14.30
2018-04-28T08:36:40.035Z,14.50
2018-04-28T08:38:43.378Z,14.40
2018-04-28T08:40:47.497Z,14.70
2018-04-28T08:42:50.795Z,14.70
2018-04-28T08:44:54.245Z,14.70
2018-04-28T08:46:57.463Z,14.70
2018-04-28T08:49:00.757Z,14.60
2018-04-28T08:51:04.841Z,14.70
2018-04-28T08:53:08.138Z,14.70
2018-04-28T08:55:11.495Z,14.80
2018-04-28T08:57:14.786Z,14.90
2018-04-28T08:59:18.049Z,14.70
2018-04-28T09:01:21.351Z,15.00
2018-04-28T09:03:24.646Z,15.00
2018-04-28T09:05:27.899Z,15.00
2018-04-28T09:07:40.087Z,14.90
2018-04-28T09:09:43.695Z,14.90
2018-04-28T09:11:47.211Z,14.80
2018-04-28T09:13:50.684Z,14.80
2018-04-28T09:15:54.223Z,15.00
2018-04-28T09:17:58.483Z,15.40
2018-04-28T09:20:03.114Z,15.40
2018-04-28T09:22:12.801Z,15.50
2018-04-28T09:24:18.368Z,15.40
2018-04-28T09:26:21.906Z,15.50
2018-04-28T09:28:25.483Z,15.50
2018-04-28T09:30:28.995Z,15.60
2018-04-28T09:32:32.966Z,15.20
2018-04-28T09:34:36.499Z,15.00
2018-04-28T09:36:40.033Z,15.10
2018-04-28T09:38:43.591Z,15.20
2018-04-28T09:40:47.094Z,15.20
2018-04-28T09:42:50.614Z,15.50
2018-04-28T09:44:54.106Z,15.60
2018-04-28T09:46:58.437Z,16.00
2018-04-28T09:49:02.013Z,15.90
2018-04-28T09:51:06.447Z,15.60
2018-04-28T09:53:10.011Z,15.60
2018-04-28T09:55:13.545Z,15.80
2018-04-28T09:57:17.127Z,15.80
2018-04-28T09:59:20.654Z,15.90
2018-04-28T10:01:24.211Z,16.00
2018-04-28T10:03:30.735Z,16.30
2018-04-28T10:05:34.270Z,16.40
2018-04-28T10:07:38.893Z,16.10
2018-04-28T10:09:42.590Z,15.80
2018-04-28T10:11:46.882Z,16.30
2018-04-28T10:13:51.259Z,16.30
2018-04-28T10:15:54.765Z,16.30
2018-04-28T10:17:58.407Z,16.60
2018-04-28T10:20:02.810Z,17.00
2018-04-28T10:22:07.024Z,16.90
2018-04-28T10:24:10.880Z,16.40
2018-04-28T10:26:14.887Z,16.50
2018-04-28T10:28:18.417Z,16.40
2018-04-28T10:30:21.951Z,16.50
2018-04-28T10:32:25.514Z,16.30
2018-04-28T10:34:29.002Z,16.50
2018-04-28T10:36:32.543Z,16.70
2018-04-28T10:38:36.043Z,17.00
2018-04-28T10:40:39.637Z,17.10
2018-04-28T10:42:43.178Z,17.00
2018-04-28T10:44:46.729Z,16.80
2018-04-28T10:46:50.251Z,16.70
2018-04-28T10:48:53.764Z,16.30
2018-04-28T10:50:57.390Z,16.20
2018-04-28T10:53:00.884Z,16.30
2018-04-28T10:55:05.633Z,16.20
2018-04-28T10:57:10.104Z,15.80
2018-04-28T10:59:13.614Z,15.80
2018-04-28T11:01:17.916Z,15.50
2018-04-28T11:03:22.240Z,15.50
2018-04-28T11:05:25.759Z,15.50
2018-04-28T11:07:29.305Z,15.20
2018-04-28T11:09:32.871Z,15.20
2018-04-28T11:11:36.408Z,15.20
2018-04-28T11:13:40.755Z,14.60
2018-04-28T11:15:44.234Z,14.60
2018-04-28T11:17:49.015Z,14.80
2018-04-28T11:19:52.585Z,14.80
2018-04-28T11:21:56.794Z,15.40
2018-04-28T11:24:00.702Z,15.40
2018-04-28T11:26:04.262Z,15.60
2018-04-28T11:28:08.498Z,15.60
2018-04-28T11:30:12.173Z,15.60
2018-04-28T11:32:16.532Z,15.70
2018-04-28T11:34:20.056Z,15.70
2018-04-28T11:36:23.606Z,15.60
2018-04-28T11:38:27.143Z,15.50
2018-04-28T11:40:30.690Z,15.30
2018-04-28T11:42:34.244Z,15.30
2018-04-28T11:44:37.759Z,15.20
2018-04-28T11:46:42.073Z,14.90
2018-04-28T11:48:46.691Z,14.90
2018-04-28T11:50:50.944Z,15.00
2018-04-28T11:52:54.446Z,15.00
2018-04-28T11:54:58.035Z,15.30
2018-04-28T11:57:01.595Z,15.60
2018-04-28T11:59:05.262Z,15.90
2018-04-28T12:01:08.729Z,16.10
2018-04-28T12:03:13.073Z,16.20
2018-04-28T12:05:16.645Z,16.20
2018-04-28T12:07:20.187Z,16.10
2018-04-28T12:09:24.427Z,16.10
2018-04-28T12:11:27.970Z,16.10
2018-04-28T12:13:31.517Z,16.30
2018-04-28T12:15:35.044Z,16.00
2018-04-28T12:17:38.634Z,16.00
2018-04-28T12:19:42.147Z,16.00
2018-04-28T12:21:45.801Z,16.30
2018-04-28T12:23:49.347Z,16.90
2018-04-28T12:25:52.827Z,17.30
2018-04-28T12:27:56.349Z,17.10
2018-04-28T12:30:00.686Z,17.30
2018-04-28T12:32:04.370Z,17.30
2018-04-28T12:34:07.871Z,17.10
2018-04-28T12:36:11.596Z,18.10
2018-04-28T12:38:15.826Z,17.90
2018-04-28T12:40:19.530Z,17.70
2018-04-28T12:42:23.062Z,17.40
2018-04-28T12:44:27.372Z,17.30
2018-04-28T12:46:31.313Z,17.30
2018-04-28T12:48:35.317Z,16.90
2018-04-28T12:50:39.267Z,16.80
2018-04-28T12:52:42.823Z,16.50
2018-04-28T12:54:46.315Z,16.40
2018-04-28T12:56:49.902Z,16.70
2018-04-28T12:58:53.420Z,17.30
2018-04-28T13:00:56.926Z,17.60
2018-04-28T13:03:00.483Z,17.60
2018-04-28T13:05:04.928Z,17.30
2018-04-28T13:07:08.480Z,17.30
2018-04-28T13:09:12.099Z,17.40
2018-04-28T13:11:15.598Z,17.50
2018-04-28T13:13:19.175Z,17.40
2018-04-28T13:15:23.453Z,17.40
2018-04-28T13:17:27.015Z,17.40
2018-04-28T13:19:31.300Z,17.70
2018-04-28T13:21:35.631Z,17.80
2018-04-28T13:23:39.126Z,17.80
2018-04-28T13:25:42.713Z,17.80
2018-04-28T13:27:46.221Z,17.60
2018-04-28T13:29:49.772Z,18.00
2018-04-28T13:31:53.269Z,18.80
2018-04-28T13:33:57.578Z,18.40
2018-04-28T13:36:01.171Z,18.40
2018-04-28T13:38:04.682Z,18.50
2018-04-28T13:40:08.987Z,18.20
2018-04-28T13:42:12.515Z,18.20
2018-04-28T13:44:16.449Z,18.00
2018-04-28T13:46:19.941Z,17.70
2018-04-28T13:48:23.441Z,17.10
2018-04-28T13:50:27.171Z,16.90
2018-04-28T13:52:30.697Z,16.40
2018-04-28T13:54:34.199Z,16.40
2018-04-28T13:56:37.758Z,16.70
2018-04-28T13:58:41.266Z,16.40
2018-04-28T14:00:45.547Z,16.30
2018-04-28T14:02:49.047Z,16.30
2018-04-28T14:04:52.546Z,16.10
2018-04-28T14:06:56.247Z,15.90
2018-04-28T14:09:00.580Z,15.50
2018-04-28T14:11:04.859Z,15.50
2018-04-28T14:13:08.443Z,15.50
2018-04-28T14:15:11.969Z,15.20
2018-04-28T14:17:15.506Z,15.10
2018-04-28T14:19:19.034Z,15.20
2018-04-28T14:21:22.592Z,15.30
2018-04-28T14:23:26.866Z,15.30
2018-04-28T14:25:30.452Z,15.30
2018-04-28T14:27:34.971Z,15.20
2018-04-28T14:29:38.496Z,15.10
2018-04-28T14:31:42.815Z,14.90
2018-04-28T14:33:47.155Z,14.90
2018-04-28T14:35:50.691Z,14.80
2018-04-28T14:37:54.200Z,14.90
2018-04-28T14:39:58.551Z,14.90
2018-04-28T14:42:02.089Z,14.90
2018-04-28T14:44:05.583Z,14.80
2018-04-28T14:46:09.199Z,14.70
2018-04-28T14:48:12.865Z,14.90
2018-04-28T14:50:16.378Z,14.90
2018-04-28T14:52:19.878Z,14.90
2018-04-28T14:54:23.853Z,15.20
2018-04-28T14:56:27.399Z,15.30
2018-04-28T14:58:30.939Z,15.50
2018-04-28T15:00:34.505Z,15.30
2018-04-28T15:02:38.071Z,15.20
2018-04-28T15:04:41.591Z,15.70
2018-04-28T15:06:45.842Z,18.10
2018-04-28T15:08:49.379Z,18.10
2018-04-28T15:10:52.899Z,18.90
2018-04-28T15:12:56.828Z,19.50
2018-04-28T15:15:00.345Z,19.90
2018-04-28T15:17:03.854Z,19.30
2018-04-28T15:19:07.388Z,20.40
2018-04-28T15:21:11.661Z,19.50
2018-04-28T15:23:15.194Z,19.50
2018-04-28T15:25:19.664Z,19.00
2018-04-28T15:27:23.176Z,18.90
2018-04-28T15:29:26.739Z,19.90
2018-04-28T15:31:30.277Z,19.80
2018-04-28T15:33:33.779Z,19.60
2018-04-28T15:35:37.650Z,20.80
2018-04-28T15:37:41.180Z,20.50
2018-04-28T15:39:45.475Z,18.70
2018-04-28T15:41:49.050Z,18.70
2018-04-28T15:43:52.578Z,18.20
2018-04-28T15:45:56.050Z,17.90
2018-04-28T15:47:59.978Z,18.20
2018-04-28T15:50:05.195Z,17.80
2018-04-28T15:52:08.680Z,17.70
2018-04-28T15:54:12.226Z,17.60
2018-04-28T15:56:15.787Z,17.20
2018-04-28T15:58:19.313Z,17.20
2018-04-28T16:00:22.888Z,17.10
2018-04-28T16:02:27.190Z,17.30
2018-04-28T16:04:30.728Z,17.20
2018-04-28T16:06:34.274Z,17.00
2018-04-28T16:08:37.768Z,17.00
2018-04-28T16:10:41.299Z,16.70
2018-04-28T16:12:45.580Z,17.50
2018-04-28T16:14:49.204Z,17.50
2018-04-28T16:16:53.498Z,16.60
2018-04-28T16:18:56.992Z,16.70
2018-04-28T16:21:00.485Z,16.60
2018-04-28T16:23:04.039Z,16.60
2018-04-28T16:25:07.606Z,16.60
2018-04-28T16:27:12.027Z,16.60
2018-04-28T16:29:15.471Z,16.60
2018-04-28T16:31:18.969Z,16.20
2018-04-28T16:33:22.541Z,16.30
2018-04-28T16:35:26.044Z,16.20
2018-04-28T16:37:29.571Z,16.50
2018-04-28T16:39:33.887Z,15.90
2018-04-28T16:41:38.134Z,15.50
2018-04-28T16:43:41.699Z,15.50
2018-04-28T16:45:45.228Z,15.70
2018-04-28T16:47:48.771Z,15.70
2018-04-28T16:49:52.431Z,16.10
2018-04-28T16:51:55.979Z,16.50
2018-04-28T16:54:00.297Z,16.50
2018-04-28T16:56:03.858Z,16.50
2018-04-28T16:58:07.370Z,16.60
2018-04-28T17:00:12.115Z,16.60
2018-04-28T17:02:16.407Z,16.80
2018-04-28T17:04:19.927Z,16.80
2018-04-28T17:06:24.224Z,17.00
2018-04-28T17:08:28.517Z,16.60
2018-04-28T17:10:32.031Z,16.60
2018-04-28T17:12:36.354Z,16.30
2018-04-28T17:14:40.609Z,16.30
2018-04-28T17:16:44.292Z,16.30
2018-04-28T17:18:47.784Z,16.40
2018-04-28T17:20:51.268Z,16.60
2018-04-28T17:22:54.836Z,16.50
2018-04-28T17:24:58.385Z,16.40
2018-04-28T17:27:01.882Z,16.40
2018-04-28T17:29:05.440Z,16.20
2018-04-28T17:31:09.732Z,16.30
2018-04-28T17:33:13.230Z,16.30
2018-04-28T17:35:16.755Z,16.20
2018-04-28T17:37:20.304Z,16.20
2018-04-28T17:39:23.801Z,15.80
2018-04-28T17:41:27.328Z,16.00
2018-04-28T17:43:31.610Z,16.10
2018-04-28T17:45:35.161Z,16.10
2018-04-28T17:47:38.797Z,16.10
2018-04-28T17:49:42.331Z,16.40
2018-04-28T17:51:46.610Z,16.40
2018-04-28T17:53:50.139Z,16.40
2018-04-28T17:55:54.415Z,16.60
2018-04-28T17:57:57.967Z,16.60
2018-04-28T18:00:01.508Z,16.60
2018-04-28T18:02:05.946Z,16.60
2018-04-28T18:04:09.461Z,16.60
2018-04-28T18:06:12.978Z,16.50
2018-04-28T18:08:16.483Z,16.60
2018-04-28T18:10:20.013Z,16.60
2018-04-28T18:12:23.514Z,16.50
2018-04-28T18:14:27.002Z,16.50
2018-04-28T18:16:30.519Z,16.60
2018-04-28T18:18:34.813Z,16.60
2018-04-28T18:20:38.359Z,16.60
2018-04-28T18:22:41.895Z,16.60
2018-04-28T18:24:45.415Z,16.40
2018-04-28T18:26:50.039Z,16.50
2018-04-28T18:28:54.318Z,16.50
2018-04-28T18:30:57.856Z,16.40
2018-04-28T18:33:02.168Z,16.50
2018-04-28T18:35:06.430Z,16.50
2018-04-28T18:37:11.167Z,16.40
2018-04-28T18:39:14.677Z,16.40
2018-04-28T18:41:18.211Z,16.40
2018-04-28T18:43:21.957Z,16.30
2018-04-28T18:45:26.254Z,16.20
2018-04-28T18:47:30.531Z,16.10
2018-04-28T18:49:34.412Z,16.10
2018-04-28T18:51:38.692Z,16.10
2018-04-28T18:53:43.113Z,16.10
2018-04-28T18:55:46.642Z,16.10
2018-04-28T18:57:50.914Z,16.00
2018-04-28T18:59:54.897Z,16.00
2018-04-28T19:01:58.433Z,16.00
2018-04-28T19:04:01.926Z,16.00
2018-04-28T19:06:05.490Z,16.00
2018-04-28T19:08:08.979Z,16.00
2018-04-28T19:10:12.478Z,16.00
2018-04-28T19:12:16.351Z,16.00
2018-04-28T19:14:19.898Z,15.80
2018-04-28T19:16:23.374Z,15.70
2018-04-28T19:18:26.915Z,15.70
2018-04-28T19:20:30.406Z,15.80
2018-04-28T19:22:33.953Z,15.90
2018-04-28T19:24:37.445Z,15.80
2018-04-28T19:26:41.102Z,15.60
2018-04-28T19:28:45.387Z,15.70
2018-04-28T19:30:48.888Z,15.70
2018-04-28T19:32:52.415Z,15.60
2018-04-28T19:34:55.915Z,15.00
2018-04-28T19:36:59.647Z,15.30
2018-04-28T19:39:03.891Z,15.50
2018-04-28T19:41:09.021Z,15.10
2018-04-28T19:43:13.776Z,13.90
2018-04-28T19:45:17.868Z,13.90
2018-04-28T19:47:21.461Z,13.40
2018-04-28T19:49:25.766Z,13.10
2018-04-28T19:51:29.334Z,13.10
2018-04-28T19:53:32.890Z,13.30
2018-04-28T19:55:36.398Z,13.40
2018-04-28T19:57:39.895Z,13.30
2018-04-28T19:59:43.447Z,13.50
2018-04-28T20:01:46.923Z,13.60
2018-04-28T20:03:50.426Z,13.50
2018-04-28T20:05:54.027Z,13.40
2018-04-28T20:07:58.342Z,13.10
2018-04-28T20:10:01.954Z,13.10
2018-04-28T20:12:05.447Z,13.00
2018-04-28T20:14:08.963Z,13.20
2018-04-28T20:16:12.514Z,13.10
2018-04-28T20:18:16.069Z,12.90
2018-04-28T20:20:19.617Z,12.80
2018-04-28T20:22:34.885Z,13.00
2018-04-28T20:24:50.284Z,13.10
2018-04-28T20:26:53.838Z,13.00
2018-04-28T20:28:57.354Z,13.00
2018-04-28T20:31:00.871Z,13.00
2018-04-28T20:33:04.434Z,13.00
2018-04-28T20:35:07.931Z,13.00
2018-04-28T20:37:11.451Z,12.90
2018-04-28T20:39:15.772Z,12.90
2018-04-28T20:41:19.325Z,12.90
2018-04-28T20:43:23.010Z,12.90
2018-04-28T20:45:26.568Z,12.80
2018-04-28T20:47:30.114Z,12.40
2018-04-28T20:49:33.678Z,12.90
2018-04-28T20:51:37.152Z,13.30
2018-04-28T20:53:40.641Z,13.50
2018-04-28T20:55:48.256Z,13.70
2018-04-28T20:57:53.062Z,13.90
2018-04-28T20:59:57.559Z,14.00
2018-04-28T21:02:01.091Z,14.10
2018-04-28T21:04:04.619Z,14.10
2018-04-28T21:06:08.134Z,14.10
2018-04-28T21:08:11.646Z,14.20
2018-04-28T21:10:16.067Z,14.00
2018-04-28T21:12:19.644Z,14.00
2018-04-28T21:14:23.143Z,14.10
2018-04-28T21:16:27.476Z,14.10
2018-04-28T21:18:31.754Z,14.10
2018-04-28T21:20:35.388Z,14.10
2018-04-28T21:22:42.034Z,14.20
2018-04-28T21:24:45.593Z,14.20
2018-04-28T21:26:49.496Z,14.20
2018-04-28T21:28:53.027Z,14.10
2018-04-28T21:30:56.529Z,14.10
2018-04-28T21:33:00.858Z,13.90
2018-04-28T21:35:05.786Z,13.70
2018-04-28T21:37:09.279Z,13.70
2018-04-28T21:39:12.852Z,13.40
2018-04-28T21:41:16.354Z,12.80
2018-04-28T21:43:20.631Z,13.30
2018-04-28T21:45:24.219Z,13.20
2018-04-28T21:47:28.497Z,13.80
2018-04-28T21:49:32.150Z,13.80
2018-04-28T21:51:35.667Z,14.00
2018-04-28T21:53:39.997Z,14.10
2018-04-28T21:55:43.591Z,14.00
2018-04-28T21:57:47.849Z,14.00
2018-04-28T21:59:51.352Z,13.90
2018-04-28T22:01:54.933Z,13.90
2018-04-28T22:03:58.459Z,13.90
2018-04-28T22:06:02.800Z,13.80
2018-04-28T22:08:07.149Z,13.80
2018-04-28T22:10:10.650Z,13.80
2018-04-28T22:12:14.254Z,13.90
2018-04-28T22:14:17.775Z,13.60
2018-04-28T22:16:21.780Z,13.50
2018-04-28T22:18:25.271Z,13.70
2018-04-28T22:20:28.808Z,13.80
2018-04-28T22:22:32.374Z,13.90
2018-04-28T22:24:35.910Z,13.90
2018-04-28T22:26:39.441Z,14.00
2018-04-28T22:28:42.943Z,14.00
2018-04-28T22:30:46.470Z,14.00
2018-04-28T22:32:50.827Z,13.90
2018-04-28T22:34:54.379Z,13.90
2018-04-28T22:36:58.682Z,13.90
2018-04-28T22:39:02.163Z,13.90
2018-04-28T22:41:05.789Z,13.70
2018-04-28T22:43:10.069Z,13.70
2018-04-28T22:45:13.541Z,13.70
2018-04-28T22:47:17.147Z,13.70
2018-04-28T22:49:20.652Z,13.80
2018-04-28T22:51:24.198Z,13.80
2018-04-28T22:53:27.750Z,13.80
2018-04-28T22:55:32.286Z,13.80
2018-04-28T22:57:36.621Z,13.60
2018-04-28T22:59:40.128Z,13.60
2018-04-28T23:01:43.672Z,13.70
2018-04-28T23:03:47.175Z,13.70
2018-04-28T23:05:50.781Z,13.80
2018-04-28T23:07:55.104Z,13.70
2018-04-28T23:09:59.397Z,13.80
2018-04-28T23:12:03.722Z,14.00
2018-04-28T23:14:08.027Z,13.90
2018-04-28T23:16:11.968Z,13.90
2018-04-28T23:18:15.546Z,13.90
2018-04-28T23:20:19.094Z,13.90
2018-04-28T23:22:22.683Z,13.80
2018-04-28T23:24:26.210Z,13.50
2018-04-28T23:26:29.728Z,13.60
2018-04-28T23:28:34.007Z,13.60
2018-04-28T23:30:37.511Z,13.60
2018-04-28T23:32:41.867Z,13.60
2018-04-28T23:34:45.519Z,13.60
2018-04-28T23:36:49.002Z,13.60
2018-04-28T23:38:52.512Z,13.50
2018-04-28T23:40:56.836Z,13.60
2018-04-28T23:43:01.112Z,13.60
2018-04-28T23:45:05.410Z,13.60
2018-04-28T23:47:09.041Z,13.60
2018-04-28T23:49:12.559Z,13.70
2018-04-28T23:51:16.844Z,13.80
2018-04-28T23:53:21.254Z,13.60
2018-04-28T23:55:24.816Z,13.60
2018-04-28T23:57:28.401Z,13.50
2018-04-28T23:59:32.068Z,13.60
